Time;durP1;ratioP1;P1;durP2;ratioP2;P2;SDS_P1;SDS_P2;PMS_P1;PMS_P2;Temp;Humidity;BMP_temperature;BMP_pressure;BME280_temperature;BME280_humidity;BME280_pressure;Samples;Min_cycle;Max_cycle;Signal;HPM_P1;HPM_P2
2023/10/04 00:00:15;;;;;;;1.83;1.83;;;22.00;76.30;;;;;;5105205;28;43955;-70
2023/10/04 00:02:48;;;;;;;1.60;1.60;;;21.90;76.60;;;;;;5098734;28;45833;-70
2023/10/04 00:05:17;;;;;;;1.70;1.60;;;21.90;76.70;;;;;;5100894;28;43319;-70
2023/10/04 00:07:46;;;;;;;1.50;1.50;;;21.80;76.70;;;;;;5100230;28;43407;-70
2023/10/04 00:10:16;;;;;;;1.70;1.70;;;21.80;76.90;;;;;;5097932;28;43441;-70
2023/10/04 00:12:44;;;;;;;1.53;1.53;;;21.70;77.00;;;;;;5093021;28;43689;-70
2023/10/04 00:15:13;;;;;;;1.70;1.70;;;21.70;77.40;;;;;;5095091;28;45500;-70
2023/10/04 00:17:44;;;;;;;1.50;1.50;;;21.70;77.30;;;;;;5100789;28;43438;-70
2023/10/04 00:20:13;;;;;;;1.47;1.47;;;21.70;77.30;;;;;;5097703;28;43564;-69
2023/10/04 00:22:43;;;;;;;1.53;1.53;;;21.70;77.40;;;;;;5094862;28;43832;-70
2023/10/04 00:25:12;;;;;;;1.70;1.70;;;21.60;77.50;;;;;;5097703;27;43362;-70
2023/10/04 00:27:42;;;;;;;1.60;1.60;;;21.60;77.60;;;;;;5094859;28;43332;-70
2023/10/04 00:30:12;;;;;;;1.70;1.70;;;21.70;77.30;;;;;;5095168;28;43437;-70
2023/10/04 00:32:41;;;;;;;1.50;1.50;;;21.90;77.00;;;;;;5085405;27;43973;-66
2023/10/04 00:35:11;;;;;;;1.50;1.50;;;22.00;76.30;;;;;;5078814;28;44996;-65
2023/10/04 00:37:43;;;;;;;1.60;1.60;;;22.10;75.90;;;;;;5076338;28;43406;-65
2023/10/04 00:40:17;;;;;;;1.80;1.80;;;22.10;75.90;;;;;;5075941;28;43569;-66
2023/10/04 00:42:49;;;;;;;1.53;1.53;;;22.00;76.00;;;;;;5076527;28;45965;-69
2023/10/04 00:45:18;;;;;;;1.50;1.50;;;21.90;76.90;;;;;;5072947;28;45306;-69
2023/10/04 00:47:50;;;;;;;1.60;1.60;;;21.90;76.70;;;;;;5075836;28;43617;-70
2023/10/04 00:50:22;;;;;;;1.73;1.73;;;21.80;76.60;;;;;;5072965;28;43363;-69
2023/10/04 00:52:52;;;;;;;1.50;1.50;;;21.80;76.70;;;;;;5080403;28;46044;-69
2023/10/04 00:55:20;;;;;;;1.50;1.50;;;21.80;76.90;;;;;;5077225;28;43526;-69
2023/10/04 00:57:51;;;;;;;1.87;1.87;;;21.70;77.10;;;;;;5068528;28;43950;-70
2023/10/04 01:00:19;;;;;;;1.70;1.60;;;21.70;77.40;;;;;;5070271;28;43877;-69
2023/10/04 01:02:48;;;;;;;1.67;1.67;;;21.70;77.30;;;;;;5068002;28;44610;-70
2023/10/04 01:05:17;;;;;;;1.33;1.33;;;21.60;77.20;;;;;;5072690;28;43464;-70
2023/10/04 01:07:48;;;;;;;1.50;1.50;;;21.60;77.30;;;;;;5075991;28;43431;-70
2023/10/04 01:10:16;;;;;;;1.57;1.57;;;21.60;77.60;;;;;;5075066;28;43561;-69
2023/10/04 01:12:46;;;;;;;1.50;1.50;;;21.60;77.40;;;;;;5075902;27;43612;-71
2023/10/04 01:15:30;;;;;;;1.70;1.70;;;21.70;77.00;;;;;;5069064;28;44339;-75
2023/10/04 01:17:59;;;;;;;1.50;1.50;;;21.90;76.60;;;;;;5077789;28;43427;-70
2023/10/04 01:20:30;;;;;;;1.60;1.60;;;22.10;76.10;;;;;;5073965;28;43479;-71
2023/10/04 01:23:01;;;;;;;1.50;1.50;;;22.00;75.80;;;;;;5073059;28;43605;-75
2023/10/04 01:25:31;;;;;;;1.63;1.63;;;22.00;76.00;;;;;;5077327;28;43363;-69
2023/10/04 01:28:00;;;;;;;1.60;1.60;;;21.90;76.20;;;;;;5075154;28;43394;-69
2023/10/04 01:30:29;;;;;;;1.60;1.60;;;21.80;76.60;;;;;;5077014;28;43441;-70
2023/10/04 01:33:00;;;;;;;1.63;1.63;;;21.80;76.60;;;;;;5073866;28;45592;-70
2023/10/04 01:35:29;;;;;;;1.50;1.50;;;21.70;76.70;;;;;;5073238;28;44052;-69
2023/10/04 01:37:57;;;;;;;1.67;1.67;;;21.70;76.90;;;;;;5069851;27;43418;-69
2023/10/04 01:40:31;;;;;;;1.73;1.73;;;21.70;77.10;;;;;;5079292;28;43430;-71
2023/10/04 01:43:00;;;;;;;1.60;1.60;;;21.60;77.20;;;;;;5083959;28;45697;-70
2023/10/04 01:45:28;;;;;;;1.57;1.57;;;21.60;77.20;;;;;;5099459;28;44844;-70
2023/10/04 01:47:56;;;;;;;1.77;1.77;;;21.60;77.20;;;;;;5093499;28;43303;-70
2023/10/04 01:50:24;;;;;;;1.60;1.60;;;21.60;77.30;;;;;;5096569;28;43518;-70
2023/10/04 01:52:53;;;;;;;1.37;1.37;;;21.50;77.40;;;;;;5091291;28;44295;-67
2023/10/04 01:55:21;;;;;;;1.40;1.40;;;21.60;77.50;;;;;;5084541;27;43450;-69
2023/10/04 01:57:52;;;;;;;1.50;1.50;;;21.60;77.20;;;;;;5078241;28;43877;-66
2023/10/04 02:00:22;;;;;;;1.40;1.40;;;21.80;76.90;;;;;;5080150;28;43530;-67
2023/10/04 02:02:52;;;;;;;1.40;1.40;;;21.90;76.30;;;;;;5081021;28;43681;-67
2023/10/04 02:05:28;;;;;;;1.50;1.50;;;22.00;76.00;;;;;;5076993;28;43966;-67
2023/10/04 02:07:57;;;;;;;1.43;1.43;;;22.00;76.00;;;;;;5080368;28;43425;-66
2023/10/04 02:10:26;;;;;;;1.60;1.60;;;21.90;76.20;;;;;;5086077;28;43373;-66
2023/10/04 02:12:56;;;;;;;1.50;1.50;;;21.80;76.40;;;;;;5076206;28;45848;-66
2023/10/04 02:15:24;;;;;;;1.80;1.70;;;21.70;76.70;;;;;;5072411;28;45121;-67
2023/10/04 02:17:56;;;;;;;1.50;1.50;;;21.70;76.70;;;;;;5083007;28;43334;-67
2023/10/04 02:20:25;;;;;;;1.57;1.57;;;21.70;76.90;;;;;;5076060;28;43816;-67
2023/10/04 02:22:54;;;;;;;1.53;1.53;;;21.60;76.90;;;;;;5075888;28;46198;-68
2023/10/04 02:25:22;;;;;;;1.40;1.40;;;21.60;77.20;;;;;;5076654;28;44461;-66
2023/10/04 02:27:51;;;;;;;1.30;1.30;;;21.60;77.30;;;;;;5076061;28;43443;-67
2023/10/04 02:30:22;;;;;;;1.77;1.77;;;21.60;76.90;;;;;;5077748;28;44106;-67
2023/10/04 02:32:51;;;;;;;1.80;1.80;;;21.80;76.60;;;;;;5079681;27;45340;-67
2023/10/04 02:35:26;;;;;;;1.30;1.30;;;21.90;76.10;;;;;;5075724;28;45679;-67
2023/10/04 02:37:59;;;;;;;1.70;1.60;;;22.00;75.90;;;;;;5075609;28;43394;-66
2023/10/04 02:40:32;;;;;;;1.40;1.40;;;21.90;75.90;;;;;;5078420;28;43550;-66
2023/10/04 02:43:04;;;;;;;1.57;1.57;;;21.80;76.10;;;;;;5076420;28;44737;-65
2023/10/04 02:45:36;;;;;;;1.70;1.60;;;21.80;76.50;;;;;;5075655;28;45099;-66
2023/10/04 02:48:09;;;;;;;1.40;1.40;;;21.70;76.70;;;;;;5074342;28;43478;-67
2023/10/04 02:50:39;;;;;;;1.50;1.50;;;21.70;76.70;;;;;;5095335;27;43567;-65
2023/10/04 02:53:08;;;;;;;1.60;1.60;;;21.60;76.70;;;;;;5076171;28;44074;-71
2023/10/04 02:55:37;;;;;;;1.47;1.47;;;21.60;76.90;;;;;;5081118;27;44413;-71
2023/10/04 02:58:06;;;;;;;1.40;1.40;;;21.60;77.20;;;;;;5073484;28;43356;-71
2023/10/04 03:00:44;;;;;;;1.40;1.40;;;21.60;77.30;;;;;;5078565;28;43583;-70
2023/10/04 03:03:14;;;;;;;1.40;1.40;;;21.50;77.10;;;;;;5071001;28;45019;-70
2023/10/04 03:05:44;;;;;;;1.50;1.47;;;21.50;77.20;;;;;;5076734;28;45078;-70
2023/10/04 03:08:12;;;;;;;1.50;1.50;;;21.50;77.20;;;;;;5077588;28;43460;-70
2023/10/04 03:10:42;;;;;;;1.40;1.40;;;21.50;77.50;;;;;;5074897;28;43466;-70
2023/10/04 03:13:15;;;;;;;2.10;1.60;;;21.50;77.50;;;;;;5078852;28;46157;-70
2023/10/04 03:15:47;;;;;;;1.80;1.80;;;21.60;77.20;;;;;;5071989;28;43469;-70
2023/10/04 03:18:18;;;;;;;1.40;1.40;;;21.80;76.80;;;;;;5070295;28;43422;-70
2023/10/04 03:21:01;;;;;;;1.60;1.60;;;21.90;76.20;;;;;;5075683;28;43402;-70
2023/10/04 03:23:40;;;;;;;1.43;1.43;;;21.90;75.80;;;;;;5072095;28;45759;-70
2023/10/04 03:26:16;;;;;;;1.60;1.60;;;21.90;75.90;;;;;;5075307;28;43824;-70
2023/10/04 03:28:48;;;;;;;1.40;1.40;;;21.80;76.10;;;;;;5074213;28;43415;-70
2023/10/04 03:31:20;;;;;;;1.60;1.60;;;21.70;76.30;;;;;;5093453;27;44120;-70
2023/10/04 03:33:53;;;;;;;1.47;1.47;;;21.70;76.70;;;;;;5079998;28;44091;-69
2023/10/04 03:36:25;;;;;;;1.37;1.37;;;21.70;76.70;;;;;;5077666;28;44330;-70
2023/10/04 03:39:00;;;;;;;1.47;1.47;;;21.60;76.80;;;;;;5073563;28;43414;-70
2023/10/04 03:41:30;;;;;;;1.60;1.60;;;21.60;76.90;;;;;;5079794;27;44050;-70
2023/10/04 03:44:05;;;;;;;1.50;1.50;;;21.50;77.10;;;;;;5077424;28;46009;-70
2023/10/04 03:46:37;;;;;;;1.57;1.57;;;21.50;77.10;;;;;;5075243;28;44923;-70
2023/10/04 03:49:06;;;;;;;1.70;1.60;;;21.50;77.20;;;;;;5077216;28;44097;-70
2023/10/04 03:51:34;;;;;;;1.57;1.57;;;21.50;77.20;;;;;;5075898;28;43514;-70
2023/10/04 03:54:07;;;;;;;6.63;3.13;;;21.50;77.20;;;;;;5074562;28;45854;-70
2023/10/04 03:56:41;;;;;;;7.63;3.90;;;21.50;77.50;;;;;;5076574;28;44953;-70
2023/10/04 03:59:10;;;;;;;16.87;4.90;;;21.50;77.30;;;;;;5072147;28;43829;-70
2023/10/04 04:01:40;;;;;;;17.40;5.30;;;21.60;76.90;;;;;;5072149;27;43475;-70
2023/10/04 04:04:14;;;;;;;17.27;6.13;;;21.80;76.40;;;;;;5099900;27;45415;-70
2023/10/04 04:06:43;;;;;;;17.67;5.73;;;21.90;75.80;;;;;;5103337;28;44666;-69
2023/10/04 04:09:12;;;;;;;13.87;5.67;;;22.00;75.50;;;;;;5100020;28;43353;-69
2023/10/04 04:11:41;;;;;;;11.90;5.23;;;22.00;75.50;;;;;;5094344;28;43387;-70
2023/10/04 04:14:10;;;;;;;10.97;4.87;;;21.90;75.90;;;;;;5099389;28;43886;-70
2023/10/04 04:16:39;;;;;;;14.13;6.53;;;21.80;76.00;;;;;;5092608;28;43663;-70
2023/10/04 04:19:11;;;;;;;18.00;5.73;;;21.80;76.30;;;;;;5093590;28;43493;-68
2023/10/04 04:21:40;;;;;;;13.93;5.33;;;21.70;76.30;;;;;;5101837;28;43485;-69
2023/10/04 04:24:09;;;;;;;10.63;5.13;;;21.70;76.40;;;;;;5099171;28;44227;-69
2023/10/04 04:26:40;;;;;;;15.03;5.73;;;21.60;76.60;;;;;;5095144;28;44778;-68
2023/10/04 04:29:09;;;;;;;17.07;5.97;;;21.60;76.90;;;;;;5099633;28;43447;-68
2023/10/04 04:31:41;;;;;;;13.67;5.87;;;21.60;76.90;;;;;;5096095;28;43477;-68
2023/10/04 04:34:15;;;;;;;14.83;5.67;;;21.60;76.90;;;;;;5097832;28;45682;-69
2023/10/04 04:36:49;;;;;;;10.97;5.30;;;21.50;77.60;;;;;;5098504;28;43374;-68
2023/10/04 04:39:18;;;;;;;13.43;5.60;;;21.50;77.00;;;;;;5095455;28;43366;-69
2023/10/04 04:41:51;;;;;;;13.10;5.67;;;21.50;78.00;;;;;;5103335;28;43428;-69
2023/10/04 04:44:20;;;;;;;12.17;5.80;;;21.50;77.10;;;;;;5095054;28;44975;-69
2023/10/04 04:46:51;;;;;;;13.63;5.50;;;21.70;76.70;;;;;;5096377;28;43417;-71
2023/10/04 04:49:19;;;;;;;10.57;5.30;;;21.80;76.20;;;;;;5097068;28;43505;-70
2023/10/04 04:51:47;;;;;;;14.90;5.70;;;21.80;76.50;;;;;;5099394;28;43433;-69
2023/10/04 04:54:18;;;;;;;11.13;5.47;;;21.80;75.80;;;;;;5097932;28;45844;-69
2023/10/04 04:56:47;;;;;;;9.77;5.37;;;21.80;76.00;;;;;;5098804;28;43475;-70
2023/10/04 04:59:20;;;;;;;10.37;5.20;;;21.80;76.30;;;;;;5102019;28;43429;-69
2023/10/04 05:01:51;;;;;;;11.10;5.63;;;21.70;76.60;;;;;;5098651;28;43389;-70
2023/10/04 05:04:22;;;;;;;8.30;4.77;;;21.60;76.60;;;;;;5097243;28;45688;-70
2023/10/04 05:06:51;;;;;;;9.63;5.13;;;21.60;76.70;;;;;;5098213;28;44597;-70
2023/10/04 05:09:19;;;;;;;11.60;5.17;;;21.60;76.80;;;;;;5097301;28;43432;-70
2023/10/04 05:11:47;;;;;;;10.03;5.27;;;21.50;76.90;;;;;;5095952;27;43366;-72
2023/10/04 05:14:15;;;;;;;9.43;4.30;;;21.50;77.20;;;;;;5072596;28;46013;-72
2023/10/04 05:16:43;;;;;;;9.97;5.30;;;21.50;76.90;;;;;;5074946;27;43406;-70
2023/10/04 05:19:13;;;;;;;9.30;5.10;;;21.60;76.60;;;;;;5073214;28;43294;-70
2023/10/04 05:21:41;;;;;;;11.43;5.43;;;21.70;76.50;;;;;;5076499;28;43426;-66
2023/10/04 05:24:10;;;;;;;8.97;5.10;;;21.60;76.30;;;;;;5081739;28;43771;-65
2023/10/04 05:26:38;;;;;;;7.13;4.33;;;21.60;76.60;;;;;;5079996;28;43362;-67
2023/10/04 05:29:07;;;;;;;7.67;4.73;;;21.60;76.60;;;;;;5074802;28;43987;-65
2023/10/04 05:31:35;;;;;;;8.83;4.67;;;21.60;76.60;;;;;;5083531;28;43395;-65
2023/10/04 05:34:04;;;;;;;7.27;4.40;;;21.60;76.60;;;;;;5078936;28;43939;-65
2023/10/04 05:36:34;;;;;;;9.60;5.20;;;21.50;76.80;;;;;;5077173;28;43990;-65
2023/10/04 05:39:03;;;;;;;8.20;4.57;;;21.50;77.10;;;;;;5078845;28;43445;-66
2023/10/04 05:41:32;;;;;;;9.57;4.70;;;21.50;77.00;;;;;;5081954;28;43442;-65
2023/10/04 05:44:00;;;;;;;8.47;4.60;;;21.50;77.00;;;;;;5078213;28;43632;-67
2023/10/04 05:46:28;;;;;;;6.77;4.60;;;21.50;77.80;;;;;;5075966;27;43445;-67
2023/10/04 05:48:57;;;;;;;7.63;4.77;;;21.50;77.20;;;;;;5079907;28;43459;-66
2023/10/04 05:51:30;;;;;;;6.90;4.50;;;21.40;77.30;;;;;;5077483;28;43521;-66
2023/10/04 05:54:04;;;;;;;5.43;4.57;;;21.50;77.20;;;;;;5082219;28;43899;-67
2023/10/04 05:56:34;;;;;;;8.37;4.73;;;21.60;76.60;;;;;;5082744;28;43339;-67
2023/10/04 05:59:03;;;;;;;7.27;4.70;;;21.80;76.20;;;;;;5083240;28;43273;-66
2023/10/04 06:01:34;;;;;;;6.40;4.43;;;21.90;75.80;;;;;;5078181;28;43480;-66
2023/10/04 06:04:02;;;;;;;5.70;4.20;;;21.90;75.70;;;;;;5083376;27;44077;-66
2023/10/04 06:06:33;;;;;;;7.47;4.10;;;21.80;75.70;;;;;;5080075;28;43479;-66
2023/10/04 06:09:03;;;;;;;5.87;4.20;;;21.70;76.00;;;;;;5081096;27;43425;-66
2023/10/04 06:11:33;;;;;;;6.40;4.37;;;21.60;76.40;;;;;;5079912;28;43483;-66
2023/10/04 06:14:01;;;;;;;6.63;4.30;;;21.60;76.50;;;;;;5077635;28;44089;-66
2023/10/04 06:16:30;;;;;;;6.77;4.27;;;21.60;76.60;;;;;;5076735;28;43486;-66
2023/10/04 06:18:58;;;;;;;4.60;3.87;;;21.50;76.60;;;;;;5076245;28;43410;-67
2023/10/04 06:21:27;;;;;;;7.13;4.60;;;21.50;76.80;;;;;;5078170;28;43504;-67
2023/10/04 06:23:58;;;;;;;7.73;4.40;;;21.40;77.00;;;;;;5075729;28;44272;-70
2023/10/04 06:26:27;;;;;;;4.07;3.70;;;21.40;77.00;;;;;;5074493;28;43465;-70
2023/10/04 06:28:57;;;;;;;5.03;4.00;;;21.40;77.00;;;;;;5080539;27;44032;-70
2023/10/04 06:31:25;;;;;;;6.07;4.60;;;21.40;77.00;;;;;;5075086;28;43486;-70
2023/10/04 06:33:54;;;;;;;5.13;4.20;;;21.40;77.10;;;;;;5100827;28;43671;-70
2023/10/04 06:36:25;;;;;;;7.43;4.03;;;21.40;77.40;;;;;;5100422;28;43324;-70
2023/10/04 06:38:53;;;;;;;4.43;3.63;;;21.40;77.30;;;;;;5099720;28;43481;-70
2023/10/04 06:41:24;;;;;;;5.40;3.83;;;21.50;77.00;;;;;;5107563;28;43491;-70
2023/10/04 06:43:52;;;;;;;5.57;4.17;;;21.60;76.40;;;;;;5099392;27;43609;-70
2023/10/04 06:46:21;;;;;;;4.83;3.47;;;21.80;75.90;;;;;;5098466;28;43445;-70
2023/10/04 06:48:51;;;;;;;5.00;4.20;;;21.80;75.70;;;;;;5098139;28;43439;-70
2023/10/04 06:51:19;;;;;;;3.97;3.67;;;21.80;75.70;;;;;;5098952;27;43438;-70
2023/10/04 06:53:48;;;;;;;4.40;3.50;;;21.70;75.90;;;;;;5097881;28;43781;-69
2023/10/04 06:56:16;;;;;;;4.00;3.60;;;21.70;76.20;;;;;;5096393;27;43403;-69
2023/10/04 06:58:44;;;;;;;3.93;3.60;;;21.60;76.40;;;;;;5097611;27;43825;-70
2023/10/04 07:01:12;;;;;;;3.77;3.43;;;21.50;76.60;;;;;;5101397;27;43367;-70
2023/10/04 07:03:43;;;;;;;3.67;3.37;;;21.40;76.70;;;;;;5096065;27;43613;-70
2023/10/04 07:06:12;;;;;;;3.60;3.40;;;21.40;77.00;;;;;;5099702;28;44585;-70
2023/10/04 07:08:41;;;;;;;5.10;3.70;;;21.40;77.10;;;;;;5102487;28;43504;-70
2023/10/04 07:11:09;;;;;;;3.73;3.43;;;21.30;77.20;;;;;;5102193;28;43357;-70
2023/10/04 07:13:39;;;;;;;3.40;3.10;;;21.30;77.30;;;;;;5096272;27;43913;-69
2023/10/04 07:16:07;;;;;;;4.70;3.83;;;21.30;77.50;;;;;;5099955;28;43357;-70
2023/10/04 07:18:36;;;;;;;3.80;3.50;;;21.30;77.50;;;;;;5097512;28;43521;-70
2023/10/04 07:21:06;;;;;;;6.40;3.60;;;21.30;78.00;;;;;;5108403;27;44035;-70
2023/10/04 07:23:34;;;;;;;5.40;3.60;;;21.30;77.50;;;;;;5094882;28;43760;-70
2023/10/04 07:26:10;;;;;;;4.40;3.43;;;21.50;77.00;;;;;;5099641;28;43449;-70
2023/10/04 07:28:40;;;;;;;3.70;3.40;;;21.70;76.10;;;;;;5099994;28;43394;-70
2023/10/04 07:31:08;;;;;;;3.77;3.10;;;22.00;75.50;;;;;;5095592;28;43419;-70
2023/10/04 07:33:37;;;;;;;3.63;3.10;;;22.20;74.60;;;;;;5085237;28;43840;-67
2023/10/04 07:36:07;;;;;;;3.37;3.10;;;22.50;73.90;;;;;;5082748;28;43404;-67
2023/10/04 07:38:36;;;;;;;3.20;2.97;;;22.60;73.30;;;;;;5082751;28;43440;-68
2023/10/04 07:41:05;;;;;;;3.30;3.10;;;22.70;72.70;;;;;;5085435;28;43410;-67
2023/10/04 07:43:33;;;;;;;3.43;3.13;;;22.80;72.40;;;;;;5095819;28;43556;-70
2023/10/04 07:46:03;;;;;;;3.10;2.83;;;22.90;72.20;;;;;;5095798;28;43442;-70
2023/10/04 07:48:31;;;;;;;3.43;3.13;;;22.90;71.90;;;;;;5099724;28;43379;-70
2023/10/04 07:50:59;;;;;;;5.07;3.40;;;22.90;72.80;;;;;;5100691;28;43413;-69
2023/10/04 07:53:29;;;;;;;3.60;3.30;;;22.70;72.40;;;;;;5098825;28;43552;-70
2023/10/04 07:55:57;;;;;;;3.30;3.10;;;22.60;72.90;;;;;;5106226;28;43351;-69
2023/10/04 07:58:25;;;;;;;3.67;3.10;;;22.40;74.20;;;;;;5098617;28;43433;-69
2023/10/04 08:00:53;;;;;;;3.10;2.83;;;22.30;73.70;;;;;;5101969;28;43325;-70
2023/10/04 08:03:22;;;;;;;3.30;3.10;;;22.20;74.00;;;;;;5100551;28;43884;-69
2023/10/04 08:05:50;;;;;;;3.07;2.87;;;22.10;74.30;;;;;;5094178;28;43493;-69
2023/10/04 08:08:18;;;;;;;2.87;2.70;;;22.00;74.90;;;;;;5099614;28;43469;-69
2023/10/04 08:10:49;;;;;;;3.23;3.03;;;21.90;75.20;;;;;;5097937;28;44037;-69
2023/10/04 08:13:17;;;;;;;3.00;2.80;;;21.90;75.40;;;;;;5099811;28;43882;-70
2023/10/04 08:15:46;;;;;;;3.10;2.90;;;21.80;75.50;;;;;;5094464;28;43401;-69
2023/10/04 08:18:16;;;;;;;3.07;2.87;;;21.70;75.80;;;;;;5099086;27;43358;-70
2023/10/04 08:20:45;;;;;;;3.00;2.80;;;21.60;76.10;;;;;;5100976;28;43495;-69
2023/10/04 08:23:13;;;;;;;2.93;2.73;;;21.70;76.10;;;;;;5094306;28;44169;-69
2023/10/04 08:25:42;;;;;;;3.33;3.10;;;21.80;75.80;;;;;;5098022;28;44315;-69
2023/10/04 08:28:12;;;;;;;3.10;2.90;;;21.90;75.30;;;;;;5097102;28;43407;-69
2023/10/04 08:30:40;;;;;;;2.60;2.50;;;22.00;74.90;;;;;;5098841;28;43436;-70
2023/10/04 08:33:09;;;;;;;2.87;2.67;;;22.00;75.50;;;;;;5101138;27;43838;-70
2023/10/04 08:35:38;;;;;;;3.87;2.70;;;22.00;75.10;;;;;;5098201;28;43366;-70
2023/10/04 08:38:07;;;;;;;3.00;2.80;;;21.90;75.30;;;;;;5095638;27;43421;-69
2023/10/04 08:40:38;;;;;;;2.70;2.37;;;21.80;75.80;;;;;;5099353;28;43522;-69
2023/10/04 08:43:07;;;;;;;2.80;2.60;;;21.70;75.90;;;;;;5080373;28;45596;-70
2023/10/04 08:45:37;;;;;;;2.87;2.67;;;21.60;76.00;;;;;;5076111;28;43427;-70
2023/10/04 08:48:07;;;;;;;2.80;2.60;;;21.60;76.20;;;;;;5073463;27;43459;-70
2023/10/04 08:50:39;;;;;;;3.00;2.80;;;21.50;76.50;;;;;;5071538;28;43380;-70
2023/10/04 08:53:11;;;;;;;2.83;2.67;;;21.50;76.70;;;;;;5086268;28;43921;-69
2023/10/04 08:55:51;;;;;;;2.73;2.63;;;21.60;76.60;;;;;;5098388;28;43808;-69
2023/10/04 08:58:23;;;;;;;2.77;2.57;;;21.70;76.10;;;;;;5097487;28;43345;-69
2023/10/04 09:00:53;;;;;;;2.70;2.50;;;21.80;75.60;;;;;;5101267;27;43422;-69
2023/10/04 09:03:23;;;;;;;2.67;2.57;;;21.90;75.50;;;;;;5099073;28;43838;-69
2023/10/04 09:05:54;;;;;;;2.30;2.30;;;21.80;75.60;;;;;;5100880;28;43905;-70
2023/10/04 09:08:24;;;;;;;2.67;2.57;;;21.70;75.80;;;;;;5103399;28;43422;-70
2023/10/04 09:11:08;;;;;;;2.53;2.43;;;21.70;76.30;;;;;;5104044;27;43439;-70
2023/10/04 09:13:44;;;;;;;2.53;2.43;;;21.60;76.40;;;;;;5097649;28;43603;-70
2023/10/04 09:16:22;;;;;;;2.50;2.40;;;21.60;76.60;;;;;;5097029;28;43422;-69
2023/10/04 09:19:07;;;;;;;2.93;2.73;;;21.50;76.60;;;;;;5098477;28;43388;-70
2023/10/04 09:21:38;;;;;;;2.53;2.33;;;21.50;76.80;;;;;;5098274;28;43359;-68
2023/10/04 09:24:09;;;;;;;2.60;2.50;;;21.40;77.10;;;;;;5091639;28;45779;-70
2023/10/04 09:26:38;;;;;;;2.63;2.53;;;21.50;77.20;;;;;;5102527;28;43389;-70
2023/10/04 09:29:07;;;;;;;2.70;2.50;;;21.50;76.70;;;;;;5097363;28;43480;-70
2023/10/04 09:31:50;;;;;;;2.47;2.37;;;21.70;76.30;;;;;;5095483;28;43433;-70
2023/10/04 09:34:19;;;;;;;2.13;2.03;;;21.80;75.90;;;;;;5093150;28;43952;-70
2023/10/04 09:36:47;;;;;;;2.40;2.30;;;21.80;75.80;;;;;;5102709;28;43414;-70
2023/10/04 09:39:23;;;;;;;2.30;2.20;;;21.80;76.10;;;;;;5101239;27;43445;-70
2023/10/04 09:41:54;;;;;;;2.00;2.00;;;21.60;76.20;;;;;;5097444;28;43441;-69
2023/10/04 09:44:24;;;;;;;2.63;2.53;;;21.60;76.70;;;;;;5096364;28;43952;-70
2023/10/04 09:46:57;;;;;;;2.53;2.43;;;21.50;76.70;;;;;;5099157;28;43994;-70
2023/10/04 09:49:26;;;;;;;2.40;2.30;;;21.50;76.90;;;;;;5096987;28;43408;-70
2023/10/04 09:51:55;;;;;;;2.60;2.47;;;21.50;77.10;;;;;;5088193;27;43390;-72
2023/10/04 09:54:23;;;;;;;2.50;2.40;;;21.40;77.20;;;;;;5077287;28;43887;-71
2023/10/04 09:56:53;;;;;;;2.33;2.23;;;21.40;77.30;;;;;;5079161;28;43572;-72
2023/10/04 09:59:23;;;;;;;2.30;2.20;;;21.40;77.40;;;;;;5078742;28;43390;-72
2023/10/04 10:01:55;;;;;;;2.33;2.23;;;21.40;77.40;;;;;;5072308;28;43526;-70
2023/10/04 10:04:25;;;;;;;2.53;2.43;;;21.40;77.50;;;;;;5070623;28;44097;-71
2023/10/04 10:07:03;;;;;;;2.30;2.20;;;21.30;77.70;;;;;;5078077;27;43367;-70
2023/10/04 10:09:31;;;;;;;2.23;2.13;;;21.40;77.70;;;;;;5072754;28;43483;-70
2023/10/04 10:12:16;;;;;;;2.43;2.27;;;21.50;77.30;;;;;;5077723;27;44063;-70
2023/10/04 10:14:45;;;;;;;2.20;2.10;;;21.60;76.80;;;;;;5071434;28;43897;-70
2023/10/04 10:17:17;;;;;;;2.20;2.10;;;21.70;76.40;;;;;;5070834;28;43576;-71
2023/10/04 10:19:46;;;;;;;2.17;2.07;;;21.70;76.40;;;;;;5069823;27;43364;-70
2023/10/04 10:22:16;;;;;;;2.13;2.10;;;21.60;76.50;;;;;;5080151;28;43474;-70
2023/10/04 10:24:48;;;;;;;2.43;2.33;;;21.60;76.90;;;;;;5077276;28;44281;-70
2023/10/04 10:27:19;;;;;;;2.23;2.13;;;21.50;77.10;;;;;;5076045;28;43389;-70
2023/10/04 10:29:48;;;;;;;2.30;2.20;;;21.50;77.10;;;;;;5072963;28;43426;-70
2023/10/04 10:32:20;;;;;;;2.50;2.40;;;21.50;77.20;;;;;;5075962;28;43291;-70
2023/10/04 10:34:52;;;;;;;1.93;1.93;;;21.40;77.10;;;;;;5071062;28;43709;-70
2023/10/04 10:37:22;;;;;;;2.20;2.10;;;21.40;77.40;;;;;;5075495;28;43945;-70
2023/10/04 10:39:50;;;;;;;2.17;2.07;;;21.40;77.70;;;;;;5080796;28;43347;-70
2023/10/04 10:42:19;;;;;;;2.10;2.00;;;21.40;77.40;;;;;;5078242;28;43489;-70
2023/10/04 10:44:47;;;;;;;2.10;2.10;;;21.50;77.10;;;;;;5072463;28;43947;-70
2023/10/04 10:47:22;;;;;;;2.30;2.17;;;21.60;76.90;;;;;;5071118;28;43371;-70
2023/10/04 10:49:56;;;;;;;1.93;1.87;;;21.60;76.70;;;;;;5071488;27;43392;-69
2023/10/04 10:52:30;;;;;;;2.10;2.00;;;21.50;76.90;;;;;;5072721;28;43985;-69
2023/10/04 10:55:00;;;;;;;1.90;1.90;;;21.50;77.00;;;;;;5072011;28;43852;-70
2023/10/04 10:57:29;;;;;;;2.07;1.97;;;21.50;76.90;;;;;;5070825;28;43394;-70
2023/10/04 11:00:01;;;;;;;2.00;1.90;;;21.50;77.10;;;;;;5073436;28;43991;-70
2023/10/04 11:02:30;;;;;;;1.60;1.60;;;21.50;77.20;;;;;;5072397;28;43411;-70
2023/10/04 11:04:59;;;;;;;2.20;2.10;;;21.40;77.40;;;;;;5077805;28;43854;-71
2023/10/04 11:07:58;;;;;;;1.97;1.87;;;21.40;77.40;;;;;;5068940;28;43489;-71
2023/10/04 11:10:42;;;;;;;2.10;2.00;;;21.40;77.50;;;;;;5069492;28;43372;-70
2023/10/04 11:13:23;;;;;;;1.77;1.77;;;21.40;77.70;;;;;;5076526;28;43523;-72
2023/10/04 11:15:54;;;;;;;1.93;1.93;;;21.30;77.70;;;;;;5075311;28;43843;-72
2023/10/04 11:18:38;;;;;;;1.80;1.80;;;21.30;77.90;;;;;;5072925;28;43510;-72
2023/10/04 11:21:08;;;;;;;1.80;1.80;;;21.40;77.50;;;;;;5076693;28;43329;-72
2023/10/04 11:23:39;;;;;;;2.00;1.90;;;21.50;77.20;;;;;;5073504;28;43956;-72
2023/10/04 11:26:12;;;;;;;1.90;1.90;;;21.60;76.60;;;;;;5078437;28;43622;-71
2023/10/04 11:28:46;;;;;;;2.17;2.07;;;21.70;77.20;;;;;;5083904;28;43496;-71
2023/10/04 11:31:18;;;;;;;1.93;1.93;;;21.60;76.60;;;;;;5071841;28;43350;-72
2023/10/04 11:33:50;;;;;;;2.00;1.90;;;21.60;76.80;;;;;;5078901;28;43555;-71
2023/10/04 11:36:20;;;;;;;2.00;1.90;;;21.50;77.00;;;;;;5076304;28;43618;-71
2023/10/04 11:38:49;;;;;;;1.80;1.73;;;21.50;77.10;;;;;;5074971;28;43454;-73
2023/10/04 11:41:19;;;;;;;1.90;1.90;;;21.50;77.20;;;;;;5076750;28;43396;-72
2023/10/04 11:43:50;;;;;;;1.90;1.90;;;21.40;77.30;;;;;;5076889;28;43441;-72
2023/10/04 11:46:18;;;;;;;1.90;1.80;;;21.40;77.50;;;;;;5078018;28;43768;-72
2023/10/04 11:48:47;;;;;;;2.03;1.93;;;21.40;77.70;;;;;;5078874;27;44397;-72
2023/10/04 11:51:28;;;;;;;2.00;1.90;;;21.40;77.60;;;;;;5071374;28;43499;-72
2023/10/04 11:53:57;;;;;;;2.00;1.90;;;21.40;77.10;;;;;;5074701;27;43484;-72
2023/10/04 11:56:26;;;;;;;2.20;2.10;;;21.50;76.90;;;;;;5078903;27;43603;-72
2023/10/04 11:58:54;;;;;;;1.93;1.90;;;21.50;76.90;;;;;;5071933;27;43380;-71
2023/10/04 12:01:25;;;;;;;2.07;2.00;;;21.50;76.90;;;;;;5076357;28;43419;-72
2023/10/04 12:03:53;;;;;;;1.77;1.77;;;21.50;77.20;;;;;;5075716;27;43438;-72
2023/10/04 12:06:25;;;;;;;2.03;2.03;;;21.50;77.00;;;;;;5076896;28;43539;-72
2023/10/04 12:08:58;;;;;;;1.73;1.73;;;21.40;76.90;;;;;;5077465;28;43368;-72
2023/10/04 12:11:28;;;;;;;1.73;1.73;;;21.40;77.00;;;;;;5081230;28;43366;-70
2023/10/04 12:13:57;;;;;;;1.90;1.80;;;21.40;77.30;;;;;;5073732;28;43447;-70
2023/10/04 12:16:25;;;;;;;1.97;1.97;;;21.40;77.40;;;;;;5078699;28;44801;-70
2023/10/04 12:18:53;;;;;;;2.00;1.90;;;21.40;77.40;;;;;;5076422;28;43441;-70
2023/10/04 12:21:22;;;;;;;2.00;1.90;;;21.30;77.30;;;;;;5074580;28;43414;-71
2023/10/04 12:23:51;;;;;;;2.23;2.13;;;21.30;77.50;;;;;;5082652;28;43746;-72
2023/10/04 12:26:21;;;;;;;2.20;2.10;;;21.30;77.80;;;;;;5074078;28;43681;-72
2023/10/04 12:28:49;;;;;;;2.20;2.10;;;21.30;77.60;;;;;;5072009;28;43419;-72
2023/10/04 12:31:17;;;;;;;1.90;1.90;;;21.30;77.60;;;;;;5072538;28;43447;-72
2023/10/04 12:33:46;;;;;;;2.10;2.10;;;21.30;77.70;;;;;;5076644;28;43409;-72
2023/10/04 12:36:15;;;;;;;2.00;1.90;;;21.20;77.70;;;;;;5076172;28;43595;-71
2023/10/04 12:38:43;;;;;;;1.83;1.83;;;21.30;77.90;;;;;;5079790;27;43822;-72
2023/10/04 12:41:11;;;;;;;1.90;1.90;;;21.30;77.50;;;;;;5078894;28;43444;-72
2023/10/04 12:43:40;;;;;;;2.63;2.53;;;21.50;77.10;;;;;;5075078;28;43393;-72
2023/10/04 12:46:09;;;;;;;1.77;1.77;;;21.50;76.60;;;;;;5072249;28;43551;-72
2023/10/04 12:48:37;;;;;;;2.03;1.93;;;21.60;76.30;;;;;;5081027;27;43461;-72
2023/10/04 12:51:05;;;;;;;1.90;1.90;;;21.60;76.30;;;;;;5070882;28;43377;-72
2023/10/04 12:53:33;;;;;;;1.80;1.80;;;21.60;76.60;;;;;;5077175;28;43394;-72
2023/10/04 12:56:03;;;;;;;1.80;1.80;;;21.50;76.70;;;;;;5080604;28;44812;-72
2023/10/04 12:58:33;;;;;;;1.70;1.70;;;21.50;77.10;;;;;;5074101;28;44236;-72
2023/10/04 13:01:05;;;;;;;1.97;1.90;;;21.40;77.00;;;;;;5072337;28;43478;-72